NCAR-RAP Real-Time Weather Data

Output produced by METARs form (08 May 2021  02:14 UTC)
found at http://weather.rap.ucar.edu/surface/
 
KVPC 080155Z AUTO 00000KT 10SM SCT050 BKN055 14/05 A3009 RMK AO2
KVPC 080135Z AUTO 00000KT 10SM FEW043 BKN050 BKN060 14/04 A3008 RMK AO2
KVPC 080115Z AUTO 00000KT 10SM SCT050 SCT060 15/04 A3008 RMK AO2
KVPC 080055Z AUTO 00000KT 10SM CLR 16/03 A3008 RMK AO2
KVPC 080035Z AUTO 00000KT 10SM CLR 16/03 A3008 RMK AO2
KVPC 080015Z AUTO 00000KT 10SM CLR 17/02 A3008 RMK AO2
KVPC 072355Z AUTO 28004KT 10SM CLR 18/02 A3007 RMK AO2
KVPC 072335Z AUTO 29006KT 10SM CLR 19/02 A3007 RMK AO2
KVPC 072315Z AUTO VRB06KT 10SM CLR 19/01 A3008 RMK AO2
KVPC 072255Z AUTO VRB05KT 10SM CLR 19/01 A3007 RMK AO2
KVPC 072235Z AUTO 29007G13KT 270V330 10SM CLR 19/01 A3007 RMK AO2
KVPC 072215Z AUTO 29007G13KT 10SM CLR 19/01 A3008 RMK AO2
KVPC 072155Z AUTO 00000KT 10SM CLR 20/02 A3008 RMK AO2
KVPC 072135Z AUTO VRB05G11KT 10SM CLR 20/00 A3008 RMK AO2
KVPC 072115Z AUTO 28009G16KT 250V310 10SM CLR 20/01 A3008 RMK AO2
KVPC 072055Z AUTO VRB06G15KT 10SM CLR 20/01 A3008 RMK AO2
KVPC 072035Z AUTO 32008G15KT 270V010 10SM CLR 19/00 A3009 RMK AO2
KVPC 072015Z AUTO 35009G15KT 10SM CLR 19/01 A3009 RMK AO2
KVPC 071955Z AUTO 33008G18KT 290V010 10SM CLR 19/01 A3010 RMK AO2
KVPC 071935Z AUTO VRB05G15KT 10SM CLR 19/01 A3010 RMK AO2
KVPC 071915Z AUTO 34007G15KT 290V020 10SM CLR 19/02 A3011 RMK AO2
KVPC 071855Z AUTO 30008G17KT 270V330 10SM CLR 18/01 A3011 RMK AO2
KVPC 071835Z AUTO 28012KT 10SM CLR 18/01 A3012 RMK AO2
KVPC 071815Z AUTO 34008G14KT 290V020 10SM CLR 18/00 A3012 RMK AO2
KVPC 071755Z AUTO 33010G19KT 260V010 10SM CLR 18/01 A3013 RMK AO2
KVPC 071735Z AUTO 29010G16KT 10SM FEW070 18/00 A3014 RMK AO2
KVPC 071715Z AUTO 36007G13KT 310V070 10SM FEW070 18/01 A3014 RMK AO2
KVPC 071655Z AUTO VRB06G18KT 310V030 10SM FEW065 17/01 A3014 RMK AO2
KVPC 071635Z AUTO 31008G19KT 280V020 10SM CLR 17/01 A3015 RMK AO2
KVPC 071615Z AUTO 01007G17KT 320V060 10SM CLR 17/01 A3015 RMK AO2
KVPC 071555Z AUTO 36009G18KT 310V040 10SM CLR 16/00 A3015 RMK AO2
KVPC 071535Z AUTO 32011G16KT 260V010 10SM CLR 16/00 A3015 RMK AO2
KVPC 071515Z AUTO 32007G17KT 240V020 10SM CLR 16/02 A3014 RMK AO2
KVPC 071455Z AUTO 28010G18KT 10SM FEW046 15/03 A3014 RMK AO2
KVPC 071435Z AUTO 31009G14KT 290V360 10SM FEW044 FEW050 14/05 A3013 RMK AO2
KVPC 071415Z AUTO 30009G17KT 270V330 10SM FEW038 14/06 A3012 RMK AO2
KVPC 071355Z AUTO 28009G14KT 10SM CLR 14/07 A3012 RMK AO2
KVPC 071335Z AUTO 30010G17KT 270V340 10SM FEW024 13/07 A3012 RMK AO2
KVPC 071315Z AUTO 28011KT 10SM CLR 12/08 A3010 RMK AO2
KVPC 071255Z AUTO 28007KT 10SM CLR 12/08 A3010 RMK AO2
KVPC 071235Z AUTO 28005KT 10SM CLR 11/08 A3010 RMK AO2
KVPC 071215Z AUTO 28005KT 10SM CLR 10/08 A3009 RMK AO2
KVPC 071155Z AUTO 27006KT 10SM CLR 09/08 A3009 RMK AO2
KVPC 071135Z AUTO 27006KT 10SM CLR 09/08 A3008 RMK AO2
KVPC 071115Z AUTO VRB03KT 10SM SCT024 09/07 A3008 RMK AO2
KVPC 071055Z AUTO VRB04KT 10SM CLR 09/08 A3007 RMK AO2
KVPC 071035Z AUTO 28004KT 10SM FEW044 09/08 A3006 RMK AO2
KVPC 071015Z AUTO 27005KT 10SM BKN044 BKN050 09/08 A3005 RMK AO2